sensor_id;sensor_type;location;lat;lon;timestamp;pressure;altitude;pressure_sealevel;temperature;humidity
47897;BME280;39629;51.400;5.494;2023-04-05T00:03:19;102311.56;;;-0.50;100.00
47897;BME280;39629;51.400;5.494;2023-04-05T00:08:21;102315.09;;;-0.50;100.00
47897;BME280;39629;51.400;5.494;2023-04-05T00:13:27;102322.72;;;-0.65;100.00
47897;BME280;39629;51.400;5.494;2023-04-05T00:18:29;102327.28;;;-0.61;100.00
47897;BME280;39629;51.400;5.494;2023-04-05T00:23:33;102308.28;;;-0.75;100.00
47897;BME280;39629;51.400;5.494;2023-04-05T00:28:39;102314.03;;;-0.79;100.00
47897;BME280;39629;51.400;5.494;2023-04-05T00:33:40;102302.97;;;-0.90;100.00
47897;BME280;39629;51.400;5.494;2023-04-05T00:38:43;102311.03;;;-0.85;100.00
47897;BME280;39629;51.400;5.494;2023-04-05T00:43:47;102302.91;;;-1.03;100.00
47897;BME280;39629;51.400;5.494;2023-04-05T00:48:48;102306.78;;;-1.10;100.00
47897;BME280;39629;51.400;5.494;2023-04-05T00:53:51;102302.56;;;-1.21;100.00
47897;BME280;39629;51.400;5.494;2023-04-05T00:58:54;102299.59;;;-1.14;100.00
47897;BME280;39629;51.400;5.494;2023-04-05T01:03:58;102293.63;;;-1.26;100.00
47897;BME280;39629;51.400;5.494;2023-04-05T01:09:05;102306.63;;;-1.25;100.00
47897;BME280;39629;51.400;5.494;2023-04-05T01:14:10;102304.53;;;-1.30;100.00
47897;BME280;39629;51.400;5.494;2023-04-05T01:19:12;102292.53;;;-1.42;100.00
47897;BME280;39629;51.400;5.494;2023-04-05T01:24:28;102293.94;;;-1.47;100.00
47897;BME280;39629;51.400;5.494;2023-04-05T01:29:41;102288.75;;;-1.47;100.00
47897;BME280;39629;51.400;5.494;2023-04-05T01:34:50;102282.16;;;-1.55;100.00
47897;BME280;39629;51.400;5.494;2023-04-05T01:39:54;102282.53;;;-1.62;100.00
47897;BME280;39629;51.400;5.494;2023-04-05T01:44:58;102272.69;;;-1.68;100.00
47897;BME280;39629;51.400;5.494;2023-04-05T01:50:00;102283.03;;;-1.80;100.00
47897;BME280;39629;51.400;5.494;2023-04-05T01:55:01;102273.34;;;-1.70;100.00
47897;BME280;39629;51.400;5.494;2023-04-05T02:00:06;102265.75;;;-1.81;100.00
47897;BME280;39629;51.400;5.494;2023-04-05T02:05:13;102255.19;;;-1.72;100.00
47897;BME280;39629;51.400;5.494;2023-04-05T02:10:16;102266.66;;;-1.80;100.00
47897;BME280;39629;51.400;5.494;2023-04-05T02:15:19;102271.38;;;-1.86;100.00
47897;BME280;39629;51.400;5.494;2023-04-05T02:20:21;102264.25;;;-2.02;100.00
47897;BME280;39629;51.400;5.494;2023-04-05T02:25:25;102257.50;;;-2.00;100.00
47897;BME280;39629;51.400;5.494;2023-04-05T02:30:28;102259.50;;;-1.96;100.00
47897;BME280;39629;51.400;5.494;2023-04-05T02:35:29;102251.66;;;-2.10;100.00
47897;BME280;39629;51.400;5.494;2023-04-05T02:40:31;102255.94;;;-2.10;100.00
47897;BME280;39629;51.400;5.494;2023-04-05T02:45:34;102258.00;;;-2.18;100.00
47897;BME280;39629;51.400;5.494;2023-04-05T02:50:36;102258.00;;;-2.18;100.00
47897;BME280;39629;51.400;5.494;2023-04-05T02:55:38;102253.06;;;-2.27;100.00
47897;BME280;39629;51.400;5.494;2023-04-05T03:00:45;102251.94;;;-2.30;100.00
47897;BME280;39629;51.400;5.494;2023-04-05T03:05:57;102240.41;;;-2.35;100.00
47897;BME280;39629;51.400;5.494;2023-04-05T03:11:10;102227.97;;;-2.41;100.00
47897;BME280;39629;51.400;5.494;2023-04-05T03:16:14;102237.81;;;-2.47;100.00
47897;BME280;39629;51.400;5.494;2023-04-05T03:21:17;102234.03;;;-2.52;100.00
47897;BME280;39629;51.400;5.494;2023-04-05T03:26:28;102230.78;;;-2.50;100.00
47897;BME280;39629;51.400;5.494;2023-04-05T03:31:32;102228.88;;;-2.52;100.00
47897;BME280;39629;51.400;5.494;2023-04-05T03:36:37;102225.06;;;-2.58;100.00
47897;BME280;39629;51.400;5.494;2023-04-05T03:42:03;102222.03;;;-2.52;100.00
47897;BME280;39629;51.400;5.494;2023-04-05T03:47:06;102221.91;;;-2.65;100.00
47897;BME280;39629;51.400;5.494;2023-04-05T03:52:08;102215.19;;;-2.75;100.00
47897;BME280;39629;51.400;5.494;2023-04-05T03:57:10;102216.78;;;-2.77;100.00
47897;BME280;39629;51.400;5.494;2023-04-05T04:02:15;102210.94;;;-2.74;100.00
47897;BME280;39629;51.400;5.494;2023-04-05T04:07:17;102209.16;;;-2.64;100.00
47897;BME280;39629;51.400;5.494;2023-04-05T04:12:19;102202.66;;;-2.70;100.00
47897;BME280;39629;51.400;5.494;2023-04-05T04:17:31;102199.63;;;-2.77;100.00
47897;BME280;39629;51.400;5.494;2023-04-05T04:22:59;102199.50;;;-2.78;100.00
47897;BME280;39629;51.400;5.494;2023-04-05T04:28:07;102203.19;;;-2.86;100.00
47897;BME280;39629;51.400;5.494;2023-04-05T04:33:23;102203.09;;;-2.88;100.00
47897;BME280;39629;51.400;5.494;2023-04-05T04:39:00;102203.09;;;-2.88;100.00
47897;BME280;39629;51.400;5.494;2023-04-05T04:44:43;102200.38;;;-3.01;100.00
47897;BME280;39629;51.400;5.494;2023-04-05T04:50:15;102206.56;;;-2.99;100.00
47897;BME280;39629;51.400;5.494;2023-04-05T04:55:19;102200.63;;;-2.98;100.00
47897;BME280;39629;51.400;5.494;2023-04-05T05:00:24;102209.47;;;-2.95;100.00
47897;BME280;39629;51.400;5.494;2023-04-05T05:05:28;102196.59;;;-2.95;100.00
47897;BME280;39629;51.400;5.494;2023-04-05T05:10:30;102204.13;;;-2.86;100.00
47897;BME280;39629;51.400;5.494;2023-04-05T05:15:39;102199.72;;;-2.99;100.00
47897;BME280;39629;51.400;5.494;2023-04-05T05:20:43;102197.50;;;-2.82;100.00
47897;BME280;39629;51.400;5.494;2023-04-05T05:25:45;102196.13;;;-2.89;100.00
47897;BME280;39629;51.400;5.494;2023-04-05T05:30:48;102199.06;;;-2.72;100.00
47897;BME280;39629;51.400;5.494;2023-04-05T05:35:51;102192.34;;;-2.70;100.00
47897;BME280;39629;51.400;5.494;2023-04-05T05:40:56;102191.41;;;-2.47;100.00
47897;BME280;39629;51.400;5.494;2023-04-05T05:45:59;102190.94;;;-2.30;100.00
47897;BME280;39629;51.400;5.494;2023-04-05T05:51:02;102196.94;;;-2.05;100.00
47897;BME280;39629;51.400;5.494;2023-04-05T05:56:09;102189.13;;;-1.82;100.00
47897;BME280;39629;51.400;5.494;2023-04-05T06:01:11;102194.22;;;-1.45;100.00
47897;BME280;39629;51.400;5.494;2023-04-05T06:06:14;102208.41;;;-1.13;100.00
47897;BME280;39629;51.400;5.494;2023-04-05T06:11:17;102194.44;;;-0.76;100.00
47897;BME280;39629;51.400;5.494;2023-04-05T06:16:19;102197.97;;;-0.47;100.00
47897;BME280;39629;51.400;5.494;2023-04-05T06:21:22;102200.13;;;0.00;100.00
47897;BME280;39629;51.400;5.494;2023-04-05T06:26:24;102195.06;;;0.45;100.00
47897;BME280;39629;51.400;5.494;2023-04-05T06:31:30;102198.22;;;0.84;100.00
47897;BME280;39629;51.400;5.494;2023-04-05T06:36:33;102189.06;;;1.21;100.00
47897;BME280;39629;51.400;5.494;2023-04-05T06:41:35;102185.31;;;1.62;100.00
47897;BME280;39629;51.400;5.494;2023-04-05T06:46:37;102186.59;;;1.85;100.00
47897;BME280;39629;51.400;5.494;2023-04-05T06:51:39;102190.53;;;2.10;100.00
47897;BME280;39629;51.400;5.494;2023-04-05T06:56:42;102195.53;;;2.40;100.00
47897;BME280;39629;51.400;5.494;2023-04-05T07:01:43;102190.09;;;2.86;100.00
47897;BME280;39629;51.400;5.494;2023-04-05T07:06:46;102191.56;;;3.15;100.00
47897;BME280;39629;51.400;5.494;2023-04-05T07:11:48;102200.97;;;3.67;100.00
47897;BME280;39629;51.400;5.494;2023-04-05T07:16:50;102189.41;;;3.80;100.00
47897;BME280;39629;51.400;5.494;2023-04-05T07:21:54;102192.72;;;4.33;100.00
47897;BME280;39629;51.400;5.494;2023-04-05T07:26:56;102200.13;;;4.65;100.00
47897;BME280;39629;51.400;5.494;2023-04-05T07:31:58;102192.72;;;5.16;100.00
47897;BME280;39629;51.400;5.494;2023-04-05T07:37:01;102186.59;;;5.81;100.00
47897;BME280;39629;51.400;5.494;2023-04-05T07:42:02;102186.44;;;6.24;100.00
47897;BME280;39629;51.400;5.494;2023-04-05T07:47:04;102186.50;;;6.74;100.00
47897;BME280;39629;51.400;5.494;2023-04-05T07:52:07;102182.88;;;7.22;100.00
47897;BME280;39629;51.400;5.494;2023-04-05T07:57:08;102167.81;;;7.71;100.00
47897;BME280;39629;51.400;5.494;2023-04-05T08:02:10;102175.59;;;7.41;100.00
47897;BME280;39629;51.400;5.494;2023-04-05T08:07:13;102169.53;;;8.31;100.00
47897;BME280;39629;51.400;5.494;2023-04-05T08:12:15;102163.72;;;8.75;100.00
47897;BME280;39629;51.400;5.494;2023-04-05T08:17:16;102174.81;;;8.97;100.00
47897;BME280;39629;51.400;5.494;2023-04-05T08:22:19;102176.50;;;8.63;100.00
47897;BME280;39629;51.400;5.494;2023-04-05T08:27:21;102165.75;;;9.59;100.00
47897;BME280;39629;51.400;5.494;2023-04-05T08:32:22;102153.41;;;10.40;93.27
47897;BME280;39629;51.400;5.494;2023-04-05T08:37:26;102155.59;;;9.76;81.62
47897;BME280;39629;51.400;5.494;2023-04-05T08:42:29;102151.28;;;10.68;46.98
47897;BME280;39629;51.400;5.494;2023-04-05T08:47:35;102145.28;;;10.28;47.77
47897;BME280;39629;51.400;5.494;2023-04-05T08:52:40;102151.06;;;11.06;45.51
47897;BME280;39629;51.400;5.494;2023-04-05T08:57:47;102141.28;;;11.55;40.82
47897;BME280;39629;51.400;5.494;2023-04-05T09:02:53;102146.72;;;11.68;42.24
47897;BME280;39629;51.400;5.494;2023-04-05T09:07:58;102146.78;;;11.72;41.56
47897;BME280;39629;51.400;5.494;2023-04-05T09:13:00;102145.28;;;11.93;40.18
47897;BME280;39629;51.400;5.494;2023-04-05T09:18:02;102137.84;;;12.33;39.58
47897;BME280;39629;51.400;5.494;2023-04-05T09:23:05;102142.03;;;11.47;37.32
47897;BME280;39629;51.400;5.494;2023-04-05T09:28:08;102137.41;;;11.98;38.88
47897;BME280;39629;51.400;5.494;2023-04-05T09:33:14;102127.59;;;12.63;37.84
47897;BME280;39629;51.400;5.494;2023-04-05T09:38:43;102125.00;;;11.89;37.54
47897;BME280;39629;51.400;5.494;2023-04-05T09:43:45;102125.38;;;12.23;36.43
47897;BME280;39629;51.400;5.494;2023-04-05T09:48:47;102125.09;;;11.31;38.25
47897;BME280;39629;51.400;5.494;2023-04-05T09:53:58;102124.47;;;12.16;38.91
47897;BME280;39629;51.400;5.494;2023-04-05T09:59:01;102116.69;;;12.30;35.50
47897;BME280;39629;51.400;5.494;2023-04-05T10:04:06;102100.56;;;12.94;38.91
47897;BME280;39629;51.400;5.494;2023-04-05T10:09:10;102100.47;;;12.85;37.62
47897;BME280;39629;51.400;5.494;2023-04-05T10:14:14;102097.94;;;12.05;34.51
47897;BME280;39629;51.400;5.494;2023-04-05T10:19:25;102087.69;;;12.33;37.06
47897;BME280;39629;51.400;5.494;2023-04-05T10:24:33;102089.63;;;12.51;37.52
47897;BME280;39629;51.400;5.494;2023-04-05T10:29:44;102081.28;;;13.08;35.94
47897;BME280;39629;51.400;5.494;2023-04-05T10:34:59;102079.41;;;12.94;39.05
47897;BME280;39629;51.400;5.494;2023-04-05T10:40:07;102079.78;;;12.35;35.64
47897;BME280;39629;51.400;5.494;2023-04-05T10:45:12;102070.06;;;12.32;35.49
47897;BME280;39629;51.400;5.494;2023-04-05T10:50:20;102072.44;;;13.03;32.73
47897;BME280;39629;51.400;5.494;2023-04-05T10:55:23;102061.09;;;13.22;35.23
47897;BME280;39629;51.400;5.494;2023-04-05T11:00:26;102062.59;;;12.78;35.35
47897;BME280;39629;51.400;5.494;2023-04-05T11:05:29;102048.53;;;12.83;35.00
47897;BME280;39629;51.400;5.494;2023-04-05T11:10:35;102053.88;;;12.93;33.73
47897;BME280;39629;51.400;5.494;2023-04-05T11:15:37;102045.25;;;13.22;34.07
47897;BME280;39629;51.400;5.494;2023-04-05T11:20:47;102042.22;;;12.67;33.06
47897;BME280;39629;51.400;5.494;2023-04-05T11:25:53;102047.22;;;12.33;32.87
47897;BME280;39629;51.400;5.494;2023-04-05T11:30:55;102030.47;;;13.65;32.38
47897;BME280;39629;51.400;5.494;2023-04-05T11:36:01;102014.69;;;13.99;33.09
47897;BME280;39629;51.400;5.494;2023-04-05T11:41:11;102014.72;;;14.29;31.68
47897;BME280;39629;51.400;5.494;2023-04-05T11:46:17;102020.75;;;13.60;34.64
47897;BME280;39629;51.400;5.494;2023-04-05T11:51:19;102004.88;;;13.71;34.25
47897;BME280;39629;51.400;5.494;2023-04-05T11:56:25;102008.50;;;13.92;35.60
47897;BME280;39629;51.400;5.494;2023-04-05T12:01:26;101994.03;;;13.00;32.58
47897;BME280;39629;51.400;5.494;2023-04-05T12:06:28;101991.81;;;12.40;32.99
47897;BME280;39629;51.400;5.494;2023-04-05T12:11:31;101992.13;;;12.77;32.58
47897;BME280;39629;51.400;5.494;2023-04-05T12:16:33;101974.09;;;14.07;35.11
47897;BME280;39629;51.400;5.494;2023-04-05T12:21:34;101979.19;;;13.32;33.67
47897;BME280;39629;51.400;5.494;2023-04-05T12:26:38;101966.03;;;13.52;34.08
47897;BME280;39629;51.400;5.494;2023-04-05T12:31:41;101965.28;;;14.39;33.24
47897;BME280;39629;51.400;5.494;2023-04-05T12:36:43;101959.13;;;13.94;32.21
47897;BME280;39629;51.400;5.494;2023-04-05T12:41:57;101957.25;;;13.68;31.37
47897;BME280;39629;51.400;5.494;2023-04-05T12:46:59;101951.03;;;15.04;32.27
47897;BME280;39629;51.400;5.494;2023-04-05T12:52:01;101941.38;;;14.89;32.19
47897;BME280;39629;51.400;5.494;2023-04-05T12:57:05;101934.31;;;14.77;32.20
47897;BME280;39629;51.400;5.494;2023-04-05T13:02:08;101937.81;;;15.01;31.27
47897;BME280;39629;51.400;5.494;2023-04-05T13:07:09;101922.22;;;15.97;33.36
47897;BME280;39629;51.400;5.494;2023-04-05T13:12:12;101932.47;;;15.07;30.85
47897;BME280;39629;51.400;5.494;2023-04-05T13:17:13;101920.28;;;14.44;30.82
47897;BME280;39629;51.400;5.494;2023-04-05T13:22:15;101918.50;;;14.32;32.30
47897;BME280;39629;51.400;5.494;2023-04-05T13:27:18;101919.22;;;15.04;30.42
47897;BME280;39629;51.400;5.494;2023-04-05T13:32:20;101913.09;;;14.92;30.87
47897;BME280;39629;51.400;5.494;2023-04-05T13:37:22;101900.78;;;14.76;31.61
47897;BME280;39629;51.400;5.494;2023-04-05T13:42:25;101893.59;;;15.04;31.64
47897;BME280;39629;51.400;5.494;2023-04-05T13:47:26;101887.31;;;15.28;30.39
47897;BME280;39629;51.400;5.494;2023-04-05T13:52:28;101883.88;;;15.02;30.05
47897;BME280;39629;51.400;5.494;2023-04-05T13:57:31;101888.47;;;14.56;29.34
47897;BME280;39629;51.400;5.494;2023-04-05T14:02:32;101881.44;;;14.41;30.64
47897;BME280;39629;51.400;5.494;2023-04-05T14:07:35;101878.84;;;14.15;29.39
47897;BME280;39629;51.400;5.494;2023-04-05T14:12:38;101870.03;;;13.91;31.37
47897;BME280;39629;51.400;5.494;2023-04-05T14:17:40;101864.47;;;14.93;29.51
47897;BME280;39629;51.400;5.494;2023-04-05T14:22:42;101854.97;;;14.29;29.51
47897;BME280;39629;51.400;5.494;2023-04-05T14:27:45;101857.59;;;14.35;28.35
47897;BME280;39629;51.400;5.494;2023-04-05T14:32:46;101857.56;;;14.49;30.61
47897;BME280;39629;51.400;5.494;2023-04-05T14:37:48;101843.41;;;14.62;29.72
47897;BME280;39629;51.400;5.494;2023-04-05T14:42:51;101836.13;;;15.11;32.03
47897;BME280;39629;51.400;5.494;2023-04-05T14:47:53;101826.56;;;14.77;32.17
47897;BME280;39629;51.400;5.494;2023-04-05T14:52:55;101828.34;;;14.80;30.27
47897;BME280;39629;51.400;5.494;2023-04-05T14:57:58;101824.03;;;14.51;29.78
47897;BME280;39629;51.400;5.494;2023-04-05T15:02:59;101824.97;;;14.25;29.34
47897;BME280;39629;51.400;5.494;2023-04-05T15:08:01;101821.53;;;13.92;31.41
47897;BME280;39629;51.400;5.494;2023-04-05T15:13:04;101802.97;;;13.58;29.69
47897;BME280;39629;51.400;5.494;2023-04-05T15:18:06;101801.16;;;13.11;30.35
47897;BME280;39629;51.400;5.494;2023-04-05T15:23:08;101793.25;;;13.80;31.60
47897;BME280;39629;51.400;5.494;2023-04-05T15:28:11;101790.63;;;13.68;30.48
47897;BME280;39629;51.400;5.494;2023-04-05T15:33:12;101794.16;;;13.75;31.58
47897;BME280;39629;51.400;5.494;2023-04-05T15:38:14;101795.03;;;13.55;31.39
47897;BME280;39629;51.400;5.494;2023-04-05T15:43:17;101791.50;;;13.41;34.96
47897;BME280;39629;51.400;5.494;2023-04-05T15:48:19;101788.88;;;13.56;34.26
47897;BME280;39629;51.400;5.494;2023-04-05T15:53:21;101782.66;;;13.14;32.71
47897;BME280;39629;51.400;5.494;2023-04-05T15:58:24;101775.50;;;12.67;31.71
47897;BME280;39629;51.400;5.494;2023-04-05T16:03:25;101767.66;;;12.88;33.77
47897;BME280;39629;51.400;5.494;2023-04-05T16:08:27;101777.09;;;12.35;32.90
47897;BME280;39629;51.400;5.494;2023-04-05T16:13:30;101778.09;;;12.51;34.01
47897;BME280;39629;51.400;5.494;2023-04-05T16:18:31;101773.53;;;12.27;32.74
47897;BME280;39629;51.400;5.494;2023-04-05T16:23:33;101771.78;;;12.26;34.00
47897;BME280;39629;51.400;5.494;2023-04-05T16:28:36;101768.22;;;12.22;35.57
47897;BME280;39629;51.400;5.494;2023-04-05T16:33:38;101753.16;;;12.03;35.90
47897;BME280;39629;51.400;5.494;2023-04-05T16:38:39;101762.88;;;12.08;35.57
47897;BME280;39629;51.400;5.494;2023-04-05T16:43:43;101757.34;;;11.68;33.94
47897;BME280;39629;51.400;5.494;2023-04-05T16:48:45;101765.31;;;11.76;35.98
47897;BME280;39629;51.400;5.494;2023-04-05T16:53:47;101759.78;;;11.42;35.92
47897;BME280;39629;51.400;5.494;2023-04-05T16:58:50;101757.22;;;11.51;35.31
47897;BME280;39629;51.400;5.494;2023-04-05T17:03:51;101764.94;;;11.31;37.17
47897;BME280;39629;51.400;5.494;2023-04-05T17:08:53;101759.59;;;11.20;36.17
47897;BME280;39629;51.400;5.494;2023-04-05T17:13:56;101756.00;;;11.11;36.66
47897;BME280;39629;51.400;5.494;2023-04-05T17:18:58;101748.97;;;11.11;41.78
47897;BME280;39629;51.400;5.494;2023-04-05T17:24:00;101760.00;;;10.76;37.33
47897;BME280;39629;51.400;5.494;2023-04-05T17:29:03;101760.72;;;10.66;41.50
47897;BME280;39629;51.400;5.494;2023-04-05T17:34:04;101770.28;;;10.56;40.32
47897;BME280;39629;51.400;5.494;2023-04-05T17:39:07;101767.41;;;10.36;40.31
47897;BME280;39629;51.400;5.494;2023-04-05T17:44:10;101774.97;;;10.13;41.22
47897;BME280;39629;51.400;5.494;2023-04-05T17:49:12;101768.53;;;9.91;42.28
47897;BME280;39629;51.400;5.494;2023-04-05T17:54:13;101774.31;;;9.68;41.77
47897;BME280;39629;51.400;5.494;2023-04-05T17:59:16;101778.19;;;9.36;44.31
47897;BME280;39629;51.400;5.494;2023-04-05T18:04:18;101772.41;;;9.07;44.44
47897;BME280;39629;51.400;5.494;2023-04-05T18:09:20;101771.13;;;8.86;45.83
47897;BME280;39629;51.400;5.494;2023-04-05T18:14:23;101778.13;;;8.43;51.62
47897;BME280;39629;51.400;5.494;2023-04-05T18:19:24;101779.41;;;8.21;52.34
47897;BME280;39629;51.400;5.494;2023-04-05T18:24:26;101785.69;;;7.90;57.25
47897;BME280;39629;51.400;5.494;2023-04-05T18:29:29;101780.81;;;7.32;71.32
47897;BME280;39629;51.400;5.494;2023-04-05T18:34:32;101791.59;;;7.11;75.34
47897;BME280;39629;51.400;5.494;2023-04-05T18:39:34;101797.44;;;6.70;74.34
47897;BME280;39629;51.400;5.494;2023-04-05T18:44:37;101788.44;;;6.91;71.93
47897;BME280;39629;51.400;5.494;2023-04-05T18:49:38;101802.63;;;6.40;81.86
47897;BME280;39629;51.400;5.494;2023-04-05T18:54:40;101800.63;;;6.02;94.40
47897;BME280;39629;51.400;5.494;2023-04-05T18:59:43;101812.09;;;6.06;91.40
47897;BME280;39629;51.400;5.494;2023-04-05T19:04:44;101807.50;;;5.99;89.68
47897;BME280;39629;51.400;5.494;2023-04-05T19:09:46;101807.03;;;5.57;93.73
47897;BME280;39629;51.400;5.494;2023-04-05T19:14:49;101812.22;;;5.30;100.00
47897;BME280;39629;51.400;5.494;2023-04-05T19:19:50;101822.50;;;5.25;100.00
47897;BME280;39629;51.400;5.494;2023-04-05T19:24:52;101825.78;;;5.20;100.00
47897;BME280;39629;51.400;5.494;2023-04-05T19:29:55;101833.19;;;5.07;100.00
47897;BME280;39629;51.400;5.494;2023-04-05T19:34:57;101817.41;;;4.56;100.00
47897;BME280;39629;51.400;5.494;2023-04-05T19:40:00;101823.56;;;4.35;100.00
47897;BME280;39629;51.400;5.494;2023-04-05T19:45:06;101816.38;;;4.52;100.00
47897;BME280;39629;51.400;5.494;2023-04-05T19:50:34;101815.72;;;4.58;100.00
47897;BME280;39629;51.400;5.494;2023-04-05T19:55:40;101813.06;;;4.56;100.00
47897;BME280;39629;51.400;5.494;2023-04-05T20:00:45;101820.59;;;4.03;100.00
47897;BME280;39629;51.400;5.494;2023-04-05T20:05:57;101806.94;;;3.65;100.00
47897;BME280;39629;51.400;5.494;2023-04-05T20:11:04;101812.06;;;3.43;100.00
47897;BME280;39629;51.400;5.494;2023-04-05T20:16:11;101808.59;;;3.42;100.00
47897;BME280;39629;51.400;5.494;2023-04-05T20:21:13;101797.41;;;3.45;100.00
47897;BME280;39629;51.400;5.494;2023-04-05T20:26:16;101799.06;;;3.43;100.00
47897;BME280;39629;51.400;5.494;2023-04-05T20:31:20;101793.78;;;3.41;100.00
47897;BME280;39629;51.400;5.494;2023-04-05T20:36:29;101793.38;;;3.11;100.00
47897;BME280;39629;51.400;5.494;2023-04-05T20:41:31;101792.50;;;3.10;100.00
47897;BME280;39629;51.400;5.494;2023-04-05T20:46:34;101794.75;;;3.02;100.00
47897;BME280;39629;51.400;5.494;2023-04-05T20:51:35;101783.28;;;2.97;100.00
47897;BME280;39629;51.400;5.494;2023-04-05T20:56:37;101786.28;;;2.87;100.00
47897;BME280;39629;51.400;5.494;2023-04-05T21:01:40;101781.91;;;2.66;100.00
47897;BME280;39629;51.400;5.494;2023-04-05T21:06:42;101781.91;;;2.47;100.00
47897;BME280;39629;51.400;5.494;2023-04-05T21:11:43;101776.44;;;2.41;100.00
47897;BME280;39629;51.400;5.494;2023-04-05T21:16:46;101780.03;;;2.25;100.00
47897;BME280;39629;51.400;5.494;2023-04-05T21:21:48;101779.47;;;2.12;100.00
47897;BME280;39629;51.400;5.494;2023-04-05T21:26:49;101775.72;;;2.06;100.00
47897;BME280;39629;51.400;5.494;2023-04-05T21:31:52;101772.28;;;2.07;100.00
47897;BME280;39629;51.400;5.494;2023-04-05T21:36:54;101768.91;;;1.90;100.00
47897;BME280;39629;51.400;5.494;2023-04-05T21:41:55;101764.75;;;1.75;100.00
47897;BME280;39629;51.400;5.494;2023-04-05T21:46:58;101776.56;;;1.68;100.00
47897;BME280;39629;51.400;5.494;2023-04-05T21:52:01;101772.31;;;1.52;100.00
47897;BME280;39629;51.400;5.494;2023-04-05T21:57:02;101777.13;;;1.45;100.00
47897;BME280;39629;51.400;5.494;2023-04-05T22:02:05;101765.13;;;1.47;100.00
47897;BME280;39629;51.400;5.494;2023-04-05T22:07:07;101761.19;;;1.37;100.00
47897;BME280;39629;51.400;5.494;2023-04-05T22:12:08;101762.22;;;1.23;100.00
47897;BME280;39629;51.400;5.494;2023-04-05T22:17:12;101755.75;;;1.14;100.00
47897;BME280;39629;51.400;5.494;2023-04-05T22:22:13;101761.00;;;1.16;100.00
47897;BME280;39629;51.400;5.494;2023-04-05T22:27:16;101758.94;;;0.92;100.00
47897;BME280;39629;51.400;5.494;2023-04-05T22:32:19;101752.06;;;0.93;100.00
47897;BME280;39629;51.400;5.494;2023-04-05T22:37:21;101751.91;;;0.90;100.00
47897;BME280;39629;51.400;5.494;2023-04-05T22:42:22;101748.19;;;0.84;100.00
47897;BME280;39629;51.400;5.494;2023-04-05T22:47:25;101749.25;;;0.72;100.00
47897;BME280;39629;51.400;5.494;2023-04-05T22:52:27;101744.72;;;0.68;100.00
47897;BME280;39629;51.400;5.494;2023-04-05T22:57:28;101742.63;;;0.60;100.00
47897;BME280;39629;51.400;5.494;2023-04-05T23:02:32;101742.47;;;0.57;100.00
47897;BME280;39629;51.400;5.494;2023-04-05T23:07:35;101738.81;;;0.54;100.00
47897;BME280;39629;51.400;5.494;2023-04-05T23:12:36;101731.53;;;0.46;100.00
47897;BME280;39629;51.400;5.494;2023-04-05T23:17:39;101727.16;;;0.45;100.00
47897;BME280;39629;51.400;5.494;2023-04-05T23:22:41;101728.16;;;0.31;100.00
47897;BME280;39629;51.400;5.494;2023-04-05T23:27:42;101722.91;;;0.29;100.00
47897;BME280;39629;51.400;5.494;2023-04-05T23:32:45;101716.22;;;0.18;100.00
47897;BME280;39629;51.400;5.494;2023-04-05T23:37:47;101708.16;;;0.12;100.00
47897;BME280;39629;51.400;5.494;2023-04-05T23:42:49;101702.19;;;0.13;100.00
47897;BME280;39629;51.400;5.494;2023-04-05T23:47:52;101701.38;;;0.14;100.00
47897;BME280;39629;51.400;5.494;2023-04-05T23:52:54;101692.03;;;0.01;100.00
47897;BME280;39629;51.400;5.494;2023-04-05T23:57:57;101687.69;;;0.00;100.00
